Terminal Aerodrome Forecast
Issued by NWS Chicago, IL

Home | Current Version | Previous Version | Text Only | Print | Product List | Glossary Off
Versions: 1 2 3 4 5 6 7 8 9 10 11 12 13 14 15 16 17 18 19 20 21 22 23 24 25 26 27 28 29 30

000
FTUS43 KLOT 280500
TAFRFD
TAF
KRFD 280526Z 2806/2906 23011KT P6SM VCSH SCT050 BKN080
     FM280700 28011G17KT P6SM BKN035
     FM280900 28013G22KT P6SM SCT020 BKN120
     FM281500 27019G30KT P6SM FEW045
     FM290000 26012KT P6SM FEW035=

USA.gov is the U.S. government's official web portal to all federal, state and local government web resources and services.